createdAt,value
2023-04-18T11:19:44.774Z,2.47
2023-04-18T11:22:12.603Z,2.40
2023-04-18T11:24:39.920Z,3.80
2023-04-18T11:27:10.096Z,3.00
2023-04-18T11:29:38.128Z,3.00
2023-04-18T11:32:09.459Z,3.13
2023-04-18T11:34:36.794Z,2.90
2023-04-18T11:37:07.824Z,3.90
2023-04-18T11:39:41.075Z,3.83
2023-04-18T11:42:09.195Z,2.75
2023-04-18T11:44:39.899Z,3.55
2023-04-18T11:47:29.000Z,3.85
2023-04-18T11:50:01.117Z,2.97
2023-04-18T11:52:29.885Z,3.20
2023-04-18T11:55:09.967Z,4.75
2023-04-18T11:57:37.235Z,3.72
2023-04-18T12:00:06.990Z,3.38
2023-04-18T12:02:38.783Z,4.20
2023-04-18T12:05:06.911Z,3.60
2023-04-18T12:07:37.423Z,3.50
2023-04-18T12:10:26.582Z,3.75
2023-04-18T12:12:55.294Z,2.33
2023-04-18T12:15:28.262Z,3.30
2023-04-18T12:18:00.710Z,2.65
2023-04-18T12:20:40.080Z,1.77
2023-04-18T12:23:09.090Z,2.60
2023-04-18T12:25:36.566Z,2.65
2023-04-18T12:28:15.201Z,3.13
2023-04-18T12:30:42.911Z,2.35
2023-04-18T12:33:10.114Z,2.83
2023-04-18T12:35:38.078Z,2.30
2023-04-18T12:38:05.891Z,1.98
2023-04-18T12:40:33.077Z,2.78
2023-04-18T12:43:02.921Z,1.60
2023-04-18T12:45:31.176Z,2.35
2023-04-18T12:47:58.620Z,2.47
2023-04-18T12:50:27.043Z,2.05
2023-04-18T12:52:55.913Z,2.00
2023-04-18T12:55:23.098Z,2.58
2023-04-18T12:57:54.436Z,2.70
2023-04-18T13:00:26.143Z,3.67
2023-04-18T13:02:53.431Z,3.78
2023-04-18T13:05:22.894Z,3.83
2023-04-18T13:07:56.308Z,6.20
2023-04-18T13:10:29.054Z,5.70
2023-04-18T13:12:56.573Z,6.07
2023-04-18T13:15:24.130Z,5.00
2023-04-18T13:17:51.392Z,6.93
2023-04-18T13:20:18.622Z,6.90
2023-04-18T13:22:45.984Z,8.65
2023-04-18T13:25:13.446Z,7.20
2023-04-18T13:27:42.086Z,5.85
2023-04-18T13:30:11.218Z,5.25
2023-04-18T13:32:39.365Z,5.43
2023-04-18T13:35:09.193Z,4.82
2023-04-18T13:37:39.727Z,5.40
2023-04-18T13:40:08.074Z,5.03
2023-04-18T13:42:37.519Z,5.82
2023-04-18T13:45:04.976Z,5.30
2023-04-18T13:47:32.115Z,5.82
2023-04-18T13:49:59.344Z,5.07
2023-04-18T13:52:26.458Z,4.97
2023-04-18T13:54:53.674Z,5.78
2023-04-18T13:57:21.999Z,4.93
2023-04-18T13:59:49.129Z,5.28
2023-04-18T14:02:16.436Z,5.40
2023-04-18T14:04:43.898Z,5.15
2023-04-18T14:07:11.106Z,5.70
2023-04-18T14:09:38.154Z,6.13
2023-04-18T14:12:05.601Z,5.10
2023-04-18T14:14:32.619Z,5.90
2023-04-18T14:16:59.662Z,4.68
2023-04-18T14:19:27.314Z,5.88
2023-04-18T14:21:54.836Z,4.57
2023-04-18T14:24:21.945Z,4.28
2023-04-18T14:26:49.062Z,5.25
2023-04-18T14:29:16.689Z,5.15
2023-04-18T14:31:44.138Z,5.13
2023-04-18T14:34:11.327Z,4.90
2023-04-18T14:36:38.439Z,5.78
2023-04-18T14:39:05.738Z,4.97
2023-04-18T14:41:33.262Z,5.10
2023-04-18T14:44:00.604Z,5.55
2023-04-18T14:46:28.505Z,5.65
2023-04-18T14:48:55.789Z,6.00
2023-04-18T14:51:23.666Z,6.05
2023-04-18T14:53:51.366Z,5.53
2023-04-18T14:56:21.243Z,5.68
2023-04-18T14:58:48.669Z,5.90
2023-04-18T15:01:17.598Z,5.38
2023-04-18T15:03:45.579Z,5.55
2023-04-18T15:06:12.906Z,4.93
2023-04-18T15:08:40.173Z,5.30
2023-04-18T15:11:08.303Z,5.80
2023-04-18T15:13:35.850Z,5.97
2023-04-18T15:16:03.105Z,6.35
2023-04-18T15:18:30.343Z,5.53
2023-04-18T15:20:59.627Z,6.30
2023-04-18T15:23:27.658Z,6.05
2023-04-18T15:25:54.763Z,7.28
2023-04-18T15:28:21.891Z,7.78
2023-04-18T15:30:48.948Z,6.80
2023-04-18T15:33:17.542Z,5.88
2023-04-18T15:35:45.246Z,6.85
2023-04-18T15:38:12.309Z,5.68
2023-04-18T15:40:39.359Z,6.20
2023-04-18T15:43:06.637Z,7.03
2023-04-18T15:45:34.026Z,6.10
2023-04-18T15:48:01.316Z,6.15
2023-04-18T15:50:28.813Z,5.90
2023-04-18T15:52:56.597Z,6.40
2023-04-18T15:55:23.724Z,5.78
2023-04-18T15:57:50.920Z,5.68
2023-04-18T16:00:19.823Z,5.75
2023-04-18T16:02:47.451Z,6.47
2023-04-18T16:05:15.534Z,6.43
2023-04-18T16:07:43.308Z,8.15
2023-04-18T16:10:11.240Z,6.38
2023-04-18T16:12:39.513Z,6.68
2023-04-18T16:15:08.772Z,8.27
2023-04-18T16:17:37.161Z,8.63
2023-04-18T16:20:06.456Z,9.25
2023-04-18T16:22:33.712Z,7.72
2023-04-18T16:25:00.864Z,9.02
2023-04-18T16:27:28.422Z,8.23
2023-04-18T16:29:55.915Z,8.07
2023-04-18T16:32:23.075Z,9.35
2023-04-18T16:34:50.329Z,9.05
2023-04-18T16:37:17.529Z,7.82
2023-04-18T16:39:44.907Z,7.60
2023-04-18T16:42:14.053Z,6.40
2023-04-18T16:44:42.728Z,5.63
2023-04-18T16:47:09.954Z,6.55
2023-04-18T16:49:37.615Z,6.22
2023-04-18T16:52:04.844Z,5.93
2023-04-18T16:54:32.161Z,6.35
2023-04-18T16:56:59.392Z,6.00
2023-04-18T16:59:26.689Z,6.63
2023-04-18T17:01:53.935Z,6.55
2023-04-18T17:04:21.894Z,5.07
2023-04-18T17:06:51.470Z,6.65
2023-04-18T17:09:19.887Z,5.68
2023-04-18T17:11:48.005Z,7.10
2023-04-18T17:14:15.557Z,6.30
2023-04-18T17:16:42.864Z,6.95
2023-04-18T17:19:10.894Z,7.22
2023-04-18T17:21:38.609Z,7.35
2023-04-18T17:24:07.154Z,8.02
2023-04-18T17:26:35.555Z,8.63
2023-04-18T17:29:04.364Z,7.88
2023-04-18T17:31:32.560Z,7.78
2023-04-18T17:34:00.808Z,8.50
2023-04-18T17:36:27.954Z,7.95
2023-04-18T17:38:55.523Z,7.15
2023-04-18T17:41:22.739Z,7.90
2023-04-18T17:43:53.468Z,7.85
2023-04-18T17:46:20.717Z,7.50
2023-04-18T17:48:47.898Z,7.45
2023-04-18T17:51:16.578Z,7.15
2023-04-18T17:53:43.753Z,7.30
2023-04-18T17:56:10.943Z,6.90
2023-04-18T17:58:38.245Z,7.10
2023-04-18T18:01:18.942Z,8.40
2023-04-18T18:03:47.373Z,9.82
2023-04-18T18:06:15.831Z,8.27
2023-04-18T18:08:43.607Z,8.95
2023-04-18T18:11:11.163Z,8.77
2023-04-18T18:13:41.689Z,8.98
2023-04-18T18:16:09.134Z,9.90
2023-04-18T18:18:36.994Z,8.98
2023-04-18T18:21:04.192Z,8.70
2023-04-18T18:23:31.384Z,9.68
2023-04-18T18:25:58.755Z,10.02
2023-04-18T18:28:26.222Z,11.10
2023-04-18T18:30:54.148Z,12.50
2023-04-18T18:33:21.382Z,9.85
2023-04-18T18:35:48.516Z,10.25
2023-04-18T18:38:15.751Z,10.35
2023-04-18T18:40:42.926Z,9.57
2023-04-18T18:43:10.072Z,9.05
2023-04-18T18:45:38.508Z,10.07
2023-04-18T18:48:10.116Z,10.10
2023-04-18T18:50:37.503Z,11.07
2023-04-18T18:53:06.261Z,9.73
2023-04-18T18:55:33.513Z,11.00
2023-04-18T18:58:00.700Z,10.38
2023-04-18T19:00:27.870Z,10.45
2023-04-18T19:02:55.131Z,9.60
2023-04-18T19:05:22.372Z,9.13
2023-04-18T19:07:51.586Z,8.43
2023-04-18T19:10:18.831Z,10.77
2023-04-18T19:12:46.016Z,10.38
2023-04-18T19:15:13.291Z,10.48
2023-04-18T19:17:40.541Z,11.20
2023-04-18T19:20:09.139Z,12.00
2023-04-18T19:22:36.282Z,12.25
2023-04-18T19:25:03.597Z,12.15
2023-04-18T19:27:30.726Z,13.85
2023-04-18T19:29:57.954Z,14.70
2023-04-18T19:32:25.047Z,13.20
2023-04-18T19:34:52.155Z,12.85
2023-04-18T19:37:19.304Z,12.77
2023-04-18T19:39:46.461Z,13.93
2023-04-18T19:42:13.729Z,13.38
2023-04-18T19:44:41.122Z,15.80
2023-04-18T19:47:08.394Z,16.17
2023-04-18T19:49:35.495Z,15.75
2023-04-18T19:52:02.704Z,16.05
2023-04-18T19:54:33.417Z,14.30
2023-04-18T19:57:01.501Z,15.18
2023-04-18T19:59:28.587Z,14.57
2023-04-18T20:01:56.725Z,15.23
2023-04-18T20:04:26.060Z,13.90
2023-04-18T20:06:54.187Z,14.25
2023-04-18T20:09:21.311Z,14.05
2023-04-18T20:11:48.659Z,13.23
2023-04-18T20:14:15.871Z,13.80
2023-04-18T20:16:43.170Z,12.60
2023-04-18T20:19:12.692Z,15.40
2023-04-18T20:21:39.997Z,16.40
2023-04-18T20:24:09.780Z,17.23
2023-04-18T20:26:36.915Z,16.77
2023-04-18T20:29:04.149Z,17.40
2023-04-18T20:31:31.199Z,18.25
2023-04-18T20:33:58.311Z,18.52
2023-04-18T20:36:25.452Z,20.00
2023-04-18T20:38:52.557Z,21.15
2023-04-18T20:41:22.821Z,22.73
2023-04-18T20:43:50.855Z,19.35
2023-04-18T20:46:17.991Z,20.70
2023-04-18T20:48:45.073Z,21.00
2023-04-18T20:51:12.221Z,24.10
2023-04-18T20:53:39.357Z,21.80
2023-04-18T20:56:06.482Z,22.33
2023-04-18T20:58:33.631Z,18.90
2023-04-18T21:01:00.841Z,17.45
2023-04-18T21:03:28.121Z,20.13
2023-04-18T21:05:55.425Z,24.48
2023-04-18T21:08:22.511Z,27.63
2023-04-18T21:10:49.592Z,23.40
2023-04-18T21:13:16.690Z,17.20
2023-04-18T21:15:43.834Z,10.85
2023-04-18T21:18:11.003Z,8.32
2023-04-18T21:20:38.183Z,6.07
2023-04-18T21:23:06.605Z,6.85
2023-04-18T21:25:33.736Z,6.80
2023-04-18T21:28:00.969Z,6.38
2023-04-18T21:30:28.098Z,6.75
2023-04-18T21:32:55.222Z,5.93
2023-04-18T21:35:24.632Z,6.22
2023-04-18T21:37:52.149Z,5.15
2023-04-18T21:40:19.460Z,5.68
2023-04-18T21:42:47.778Z,5.22
2023-04-18T21:45:17.012Z,5.55
2023-04-18T21:47:44.566Z,5.65
2023-04-18T21:50:11.864Z,5.53
2023-04-18T21:52:38.972Z,6.03
2023-04-18T21:55:06.334Z,5.60
2023-04-18T21:57:33.466Z,5.18
2023-04-18T22:00:00.622Z,4.60
2023-04-18T22:02:27.873Z,5.13
2023-04-18T22:04:55.200Z,4.60
2023-04-18T22:07:24.278Z,5.03
2023-04-18T22:09:51.419Z,4.75
2023-04-18T22:12:18.640Z,4.82
2023-04-18T22:14:48.551Z,4.10
2023-04-18T22:17:15.746Z,4.70
2023-04-18T22:19:44.560Z,3.78
2023-04-18T22:22:11.881Z,4.13
2023-04-18T22:24:39.090Z,4.07
2023-04-18T22:27:06.318Z,4.13
2023-04-18T22:29:33.400Z,4.13
2023-04-18T22:32:00.604Z,3.85
2023-04-18T22:34:27.740Z,4.03
2023-04-18T22:36:54.853Z,4.28
2023-04-18T22:39:21.963Z,4.13
2023-04-18T22:41:49.039Z,4.43
2023-04-18T22:44:16.540Z,4.68
2023-04-18T22:46:44.646Z,4.50
2023-04-18T22:49:11.944Z,4.95
2023-04-18T22:51:39.019Z,4.30
2023-04-18T22:54:06.178Z,4.10
2023-04-18T22:56:33.258Z,4.38
2023-04-18T22:59:00.308Z,4.55
2023-04-18T23:01:27.480Z,4.35
2023-04-18T23:03:54.780Z,4.50
2023-04-18T23:06:22.404Z,4.60
2023-04-18T23:08:49.929Z,4.45
2023-04-18T23:11:17.027Z,5.15
2023-04-18T23:13:44.139Z,4.55
2023-04-18T23:16:11.321Z,4.18
2023-04-18T23:18:38.403Z,4.78
2023-04-18T23:21:05.627Z,4.57
2023-04-18T23:23:33.342Z,4.97
2023-04-18T23:26:00.755Z,5.25
2023-04-18T23:28:27.884Z,4.97
2023-04-18T23:30:54.986Z,4.38
2023-04-18T23:33:22.522Z,4.22
2023-04-18T23:35:49.565Z,4.63
2023-04-18T23:38:16.747Z,4.47
2023-04-18T23:40:43.849Z,4.38
2023-04-18T23:43:10.904Z,4.57
2023-04-18T23:45:38.012Z,5.20
2023-04-18T23:48:05.119Z,4.55
2023-04-18T23:50:32.242Z,4.70
2023-04-18T23:52:59.318Z,3.95
2023-04-18T23:55:26.544Z,4.65
2023-04-18T23:57:53.618Z,5.85
